Time;durP1;ratioP1;P1;durP2;ratioP2;P2;SDS_P1;SDS_P2;PMS_P1;PMS_P2;Temp;Humidity;BMP_temperature;BMP_pressure;BME280_temperature;BME280_humidity;BME280_pressure;Samples;Min_cycle;Max_cycle;Signal;HPM_P1;HPM_P2
2022/10/03 00:00:18;;;;;;;11.25;3.70;;;11.20;99.90;;;;;;2029306;29;20601;-69
2022/10/03 00:01:34;;;;;;;14.10;3.63;;;11.20;99.90;;;;;;2040981;28;20106;-70
2022/10/03 00:03:12;;;;;;;11.55;3.38;;;11.20;99.90;;;;;;2057145;28;20019;-69
2022/10/03 00:04:40;;;;;;;12.82;3.50;;;11.20;99.90;;;;;;2056613;28;20042;-69
2022/10/03 00:05:41;;;;;;;12.60;3.30;;;11.30;99.90;;;;;;2056276;28;20021;-68
2022/10/03 00:06:41;;;;;;;14.13;3.90;;;11.20;99.90;;;;;;2048124;28;20039;-70
2022/10/03 00:07:53;;;;;;;12.93;3.63;;;11.20;99.90;;;;;;2040060;29;20047;-69
2022/10/03 00:09:10;;;;;;;17.92;4.03;;;11.30;99.90;;;;;;2050371;28;20042;-69
2022/10/03 00:10:45;;;;;;;11.35;3.50;;;11.20;99.90;;;;;;2056579;28;20050;-69
2022/10/03 00:12:03;;;;;;;13.82;3.60;;;11.20;99.90;;;;;;2056231;28;20103;-69
2022/10/03 00:13:36;;;;;;;10.95;3.50;;;11.20;99.90;;;;;;2057469;28;20035;-69
2022/10/03 00:14:46;;;;;;;15.20;3.70;;;11.10;99.90;;;;;;2056199;28;20042;-70
2022/10/03 00:16:18;;;;;;;15.98;3.72;;;11.10;99.90;;;;;;2056119;28;20031;-70
2022/10/03 00:17:26;;;;;;;11.40;3.60;;;11.10;99.90;;;;;;2056758;28;20397;-70
2022/10/03 00:18:46;;;;;;;13.10;3.15;;;11.10;99.90;;;;;;2057212;28;20050;-69
2022/10/03 00:20:13;;;;;;;12.35;3.40;;;11.10;99.90;;;;;;2055480;28;20053;-69
2022/10/03 00:21:26;;;;;;;14.23;3.42;;;11.10;99.90;;;;;;2048513;29;20036;-70
2022/10/03 00:22:39;;;;;;;12.48;3.47;;;11.10;99.90;;;;;;2040369;29;20035;-69
2022/10/03 00:23:53;;;;;;;16.48;4.07;;;11.10;99.90;;;;;;2041863;29;20114;-70
2022/10/03 00:25:11;;;;;;;13.30;3.60;;;11.10;99.90;;;;;;2056132;28;20038;-69
2022/10/03 00:26:50;;;;;;;16.70;3.90;;;11.10;99.90;;;;;;2054473;28;20042;-69
2022/10/03 00:28:24;;;;;;;15.75;3.70;;;11.10;99.90;;;;;;2049008;29;20035;-69
2022/10/03 00:29:24;;;;;;;12.85;3.78;;;11.10;99.90;;;;;;2040508;29;20042;-70
2022/10/03 00:30:42;;;;;;;15.73;3.67;;;11.10;99.90;;;;;;2041834;29;20030;-70
2022/10/03 00:32:19;;;;;;;16.20;3.60;;;11.10;99.90;;;;;;2051653;28;20046;-70
2022/10/03 00:33:41;;;;;;;14.45;3.47;;;11.10;99.90;;;;;;2044580;29;20040;-70
2022/10/03 00:35:12;;;;;;;13.43;3.67;;;11.10;99.90;;;;;;2045683;29;20047;-69
2022/10/03 00:36:25;;;;;;;17.08;3.70;;;11.10;99.90;;;;;;2049476;29;20682;-70
2022/10/03 00:37:31;;;;;;;17.65;3.90;;;11.10;99.90;;;;;;2049460;29;20032;-71
2022/10/03 00:39:10;;;;;;;16.70;4.18;;;11.10;99.90;;;;;;2050362;29;20437;-70
2022/10/03 00:40:44;;;;;;;16.63;3.72;;;11.10;99.90;;;;;;2041685;29;20091;-70
2022/10/03 00:42:15;;;;;;;14.13;3.55;;;11.00;99.90;;;;;;2046279;29;20035;-72
2022/10/03 00:43:27;;;;;;;12.65;3.50;;;11.00;99.90;;;;;;2041714;29;20039;-70
2022/10/03 00:44:56;;;;;;;12.98;3.33;;;11.10;99.90;;;;;;2042763;29;20669;-70
2022/10/03 00:46:26;;;;;;;14.10;3.60;;;11.10;99.90;;;;;;2041907;29;20135;-70
2022/10/03 00:48:15;;;;;;;13.50;3.65;;;11.10;99.90;;;;;;2045881;28;20035;-71
2022/10/03 00:49:55;;;;;;;19.38;3.72;;;11.10;99.90;;;;;;2038943;29;20040;-70
2022/10/03 00:51:25;;;;;;;12.95;3.65;;;11.10;99.90;;;;;;2053971;28;20528;-70
2022/10/03 00:52:40;;;;;;;13.00;3.50;;;11.10;99.90;;;;;;2058052;28;20466;-69
2022/10/03 00:53:47;;;;;;;13.05;3.40;;;11.20;99.90;;;;;;2058057;28;20015;-70
2022/10/03 00:55:13;;;;;;;13.90;3.28;;;11.20;99.90;;;;;;2058028;28;20158;-70
2022/10/03 00:56:52;;;;;;;13.07;3.58;;;11.20;99.90;;;;;;2058140;28;20404;-69
2022/10/03 00:58:05;;;;;;;11.07;3.03;;;11.20;99.90;;;;;;2058361;28;20023;-70
2022/10/03 00:59:33;;;;;;;15.07;3.40;;;11.30;99.90;;;;;;2058098;28;20026;-70
2022/10/03 01:00:34;;;;;;;15.50;3.30;;;11.30;99.90;;;;;;2057994;28;20085;-70
2022/10/03 01:01:47;;;;;;;12.40;3.35;;;11.30;99.90;;;;;;2057819;28;20031;-69
2022/10/03 01:02:51;;;;;;;9.32;3.33;;;11.40;99.90;;;;;;2058230;28;20031;-69
2022/10/03 01:04:14;;;;;;;17.60;3.60;;;11.40;99.90;;;;;;2058759;28;20031;-70
2022/10/03 01:05:30;;;;;;;11.95;3.28;;;11.40;99.90;;;;;;2066133;28;20045;-72
2022/10/03 01:06:35;;;;;;;16.17;3.42;;;11.40;99.90;;;;;;2066173;28;20447;-70
2022/10/03 01:08:08;;;;;;;13.85;3.50;;;11.40;99.90;;;;;;2056757;28;20053;-70
2022/10/03 01:09:28;;;;;;;15.65;3.50;;;11.50;99.90;;;;;;2060254;28;20062;-70
2022/10/03 01:10:51;;;;;;;;;;;11.40;99.90;;;;;;2065743;28;20042;-70
2022/10/03 01:12:16;;;;;;;17.70;3.40;;;11.50;99.90;;;;;;2057135;28;20418;-69
2022/10/03 01:13:41;;;;;;;15.77;3.33;;;11.50;99.90;;;;;;2060535;28;20069;-70
2022/10/03 01:15:00;;;;;;;14.07;3.53;;;11.50;99.90;;;;;;2056903;28;20074;-70
2022/10/03 01:16:14;;;;;;;14.23;3.45;;;11.50;99.90;;;;;;2057424;28;20497;-69
2022/10/03 01:17:38;;;;;;;14.20;3.45;;;11.50;99.90;;;;;;2057539;28;20031;-71
2022/10/03 01:18:51;;;;;;;17.00;3.40;;;11.50;99.90;;;;;;2040493;29;20036;-70
2022/10/03 01:20:17;;;;;;;13.80;3.72;;;11.50;99.90;;;;;;2057373;28;20101;-70
2022/10/03 01:21:23;;;;;;;15.32;3.40;;;11.50;99.90;;;;;;2057782;28;20050;-69
2022/10/03 01:22:55;;;;;;;17.08;3.42;;;11.50;99.90;;;;;;2057687;28;20772;-69
2022/10/03 01:23:56;;;;;;;18.65;3.60;;;11.50;99.90;;;;;;2057646;28;20259;-70
2022/10/03 01:25:04;;;;;;;12.05;3.20;;;11.50;99.90;;;;;;2057762;28;20031;-69
2022/10/03 01:26:28;;;;;;;20.60;3.78;;;11.50;99.90;;;;;;2049127;29;20051;-70
2022/10/03 01:30:21;;;;;;;17.75;3.78;;;11.50;99.90;;;;;;2052102;28;20034;-70
2022/10/03 01:30:33;;;;;;;15.77;3.45;;;11.50;99.90;;;;;;2048989;28;20031;-69
2022/10/03 01:31:50;;;;;;;11.50;3.08;;;11.50;99.90;;;;;;2050056;28;20087;-69
2022/10/03 01:33:12;;;;;;;15.15;3.45;;;11.50;99.90;;;;;;2058020;28;20046;-69
2022/10/03 01:34:33;;;;;;;18.25;3.30;;;11.50;99.90;;;;;;2057851;28;20102;-68
2022/10/03 01:36:06;;;;;;;13.85;3.17;;;11.50;99.90;;;;;;2057906;28;20023;-68
2022/10/03 01:37:32;;;;;;;13.35;3.17;;;11.60;99.90;;;;;;2057292;28;20038;-70
2022/10/03 01:38:47;;;;;;;15.00;3.53;;;11.50;99.90;;;;;;2057619;28;20111;-71
2022/10/03 01:40:07;;;;;;;10.98;3.03;;;11.50;99.90;;;;;;2049052;29;20171;-70
2022/10/03 01:41:31;;;;;;;13.30;3.08;;;11.50;99.90;;;;;;2051665;28;20398;-69
2022/10/03 01:43:10;;;;;;;17.70;3.72;;;11.50;99.90;;;;;;2057389;28;20058;-69
2022/10/03 01:44:27;;;;;;;14.25;3.17;;;11.50;99.90;;;;;;2065061;28;20035;-69
2022/10/03 01:45:36;;;;;;;17.65;3.50;;;11.40;99.90;;;;;;2047213;29;20114;-70
2022/10/03 01:46:41;;;;;;;17.50;3.38;;;11.40;99.90;;;;;;2042413;29;20023;-69
2022/10/03 01:48:12;;;;;;;14.18;3.30;;;11.40;99.90;;;;;;2056886;28;20078;-70
2022/10/03 01:49:41;;;;;;;16.88;3.60;;;11.40;99.90;;;;;;2053879;28;20031;-69
2022/10/03 01:51:06;;;;;;;15.40;3.08;;;11.40;99.90;;;;;;2057357;28;20077;-68
2022/10/03 01:52:20;;;;;;;13.77;3.05;;;11.40;99.90;;;;;;2065001;28;20031;-69
2022/10/03 01:53:40;;;;;;;13.73;2.97;;;11.40;99.90;;;;;;2063778;28;20026;-69
2022/10/03 01:55:04;;;;;;;16.38;3.40;;;11.40;99.90;;;;;;2048951;29;20039;-70
2022/10/03 01:56:13;;;;;;;16.70;3.63;;;11.50;99.90;;;;;;2052399;28;20034;-69
2022/10/03 01:57:43;;;;;;;16.23;3.72;;;11.50;99.90;;;;;;2057469;28;20038;-69
2022/10/03 01:59:17;;;;;;;14.10;3.30;;;11.50;99.90;;;;;;2057741;28;20630;-71
2022/10/03 02:00:20;;;;;;;14.18;3.15;;;11.50;99.90;;;;;;2048990;28;20414;-70
2022/10/03 02:01:42;;;;;;;16.27;3.53;;;11.60;99.90;;;;;;2049276;28;20091;-68
2022/10/03 02:03:02;;;;;;;16.02;3.40;;;11.60;99.90;;;;;;2057799;28;20118;-69
2022/10/03 02:04:13;;;;;;;14.30;3.08;;;11.60;99.90;;;;;;2051166;28;20532;-68
2022/10/03 02:05:26;;;;;;;13.50;2.85;;;11.60;99.90;;;;;;2058390;28;20038;-69
2022/10/03 02:06:42;;;;;;;12.40;3.00;;;11.60;99.90;;;;;;2065669;28;20058;-69
2022/10/03 02:08:07;;;;;;;12.52;3.10;;;11.60;99.90;;;;;;2065352;28;20096;-69
2022/10/03 02:09:42;;;;;;;13.20;2.92;;;11.60;99.90;;;;;;2056517;28;20026;-69
2022/10/03 02:10:54;;;;;;;17.00;3.28;;;11.60;99.90;;;;;;2061658;28;20034;-70
2022/10/03 02:11:55;;;;;;;18.20;3.30;;;11.60;99.90;;;;;;2065556;28;20030;-69
2022/10/03 02:13:27;;;;;;;12.32;2.90;;;11.60;99.90;;;;;;2065584;28;20180;-69
2022/10/03 02:14:39;;;;;;;17.77;3.50;;;11.60;99.90;;;;;;2056701;28;20489;-69
2022/10/03 02:16:05;;;;;;;13.10;3.15;;;11.60;99.90;;;;;;2058356;28;20022;-70
2022/10/03 02:17:29;;;;;;;15.95;3.42;;;11.60;99.90;;;;;;2056534;28;20073;-69
2022/10/03 02:18:48;;;;;;;11.98;3.55;;;11.50;99.90;;;;;;2060064;28;20046;-69
2022/10/03 02:20:05;;;;;;;13.02;3.17;;;11.50;99.90;;;;;;2064387;28;20037;-69
2022/10/03 02:21:15;;;;;;;15.88;3.72;;;11.50;99.90;;;;;;2057246;28;20041;-69
2022/10/03 02:22:32;;;;;;;14.55;3.88;;;11.50;99.90;;;;;;2065474;28;20045;-69
2022/10/03 02:23:33;;;;;;;15.60;3.42;;;11.50;99.90;;;;;;2063758;28;20026;-70
2022/10/03 02:24:48;;;;;;;16.50;3.60;;;11.50;99.90;;;;;;2057534;28;20026;-69
2022/10/03 02:26:24;;;;;;;16.63;3.80;;;11.50;99.90;;;;;;2057751;28;20037;-70
2022/10/03 02:27:57;;;;;;;17.45;3.78;;;11.50;99.90;;;;;;2048506;29;20073;-70
2022/10/03 02:29:09;;;;;;;13.98;3.42;;;11.50;99.90;;;;;;2052726;28;20030;-69
2022/10/03 02:30:33;;;;;;;17.10;3.80;;;11.50;99.90;;;;;;2057136;28;20035;-70
2022/10/03 02:32:12;;;;;;;15.35;3.40;;;11.50;99.90;;;;;;2057096;28;20037;-69
2022/10/03 02:33:40;;;;;;;16.83;3.85;;;11.50;99.90;;;;;;2048404;29;20035;-71
2022/10/03 02:35:24;;;;;;;12.95;3.40;;;11.50;99.90;;;;;;2052347;28;20095;-71
2022/10/03 02:36:55;;;;;;;19.90;3.42;;;11.50;99.90;;;;;;2056889;28;20027;-70
2022/10/03 02:38:17;;;;;;;18.83;3.60;;;11.50;99.90;;;;;;2057305;28;20138;-70
2022/10/03 02:39:27;;;;;;;17.25;3.97;;;11.50;99.90;;;;;;2057534;28;20465;-69
2022/10/03 02:40:30;;;;;;;12.93;3.33;;;11.50;99.90;;;;;;2042122;29;20024;-71
2022/10/03 02:41:39;;;;;;;16.98;3.97;;;11.50;99.90;;;;;;2042122;29;20067;-69
2022/10/03 02:43:15;;;;;;;14.90;3.55;;;11.50;99.90;;;;;;2050987;28;20031;-70
2022/10/03 02:44:56;;;;;;;14.90;3.22;;;11.50;99.90;;;;;;2058248;28;20049;-70
2022/10/03 02:46:18;;;;;;;12.73;3.13;;;11.50;99.90;;;;;;2058349;28;20033;-69
2022/10/03 02:47:37;;;;;;;12.32;3.30;;;11.50;99.90;;;;;;2057549;28;20086;-70
2022/10/03 02:49:09;;;;;;;15.10;3.70;;;11.50;99.90;;;;;;2058669;28;20030;-70
2022/10/03 02:50:43;;;;;;;15.65;3.67;;;11.50;99.90;;;;;;2066045;28;20476;-68
2022/10/03 02:52:16;;;;;;;16.30;3.67;;;11.60;99.90;;;;;;2062480;28;20045;-69
2022/10/03 02:53:48;;;;;;;18.85;4.00;;;11.50;99.90;;;;;;2054177;28;20038;-69
2022/10/03 02:55:03;;;;;;;16.45;3.65;;;11.60;99.90;;;;;;2059504;28;20029;-70
2022/10/03 02:56:34;;;;;;;16.75;4.28;;;11.60;99.90;;;;;;2050716;29;20098;-68
2022/10/03 02:57:54;;;;;;;12.60;3.65;;;11.50;99.90;;;;;;2049790;29;20130;-69
2022/10/03 02:59:50;;;;;;;18.00;4.47;;;11.60;99.90;;;;;;2052835;28;20028;-69
2022/10/03 03:01:17;;;;;;;16.63;4.68;;;11.60;99.90;;;;;;2059924;28;20046;-68
2022/10/03 03:02:29;;;;;;;19.40;5.07;;;11.60;99.90;;;;;;2050677;29;20055;-69
2022/10/03 03:04:02;;;;;;;16.83;4.70;;;11.60;99.90;;;;;;2053000;28;20026;-70
2022/10/03 03:05:21;;;;;;;20.42;4.85;;;11.60;99.90;;;;;;2027873;28;20048;-69
2022/10/03 03:06:28;;;;;;;18.77;4.65;;;11.60;99.90;;;;;;2061973;28;20034;-70
2022/10/03 03:07:59;;;;;;;17.65;4.50;;;11.60;99.90;;;;;;2067228;28;20030;-68
2022/10/03 03:09:16;;;;;;;;;;;11.60;99.90;;;;;;2067756;28;20022;-69
2022/10/03 03:10:55;;;;;;;18.77;4.57;;;11.60;99.90;;;;;;2067243;28;19920;-69
2022/10/03 03:12:11;;;;;;;18.02;5.15;;;11.60;99.90;;;;;;2066680;28;20026;-69
2022/10/03 03:13:44;;;;;;;20.58;5.07;;;11.70;99.90;;;;;;2067355;28;20041;-69
2022/10/03 03:15:23;;;;;;;18.73;4.93;;;11.60;99.90;;;;;;2066873;28;20038;-70
2022/10/03 03:16:35;;;;;;;18.50;5.10;;;11.60;99.90;;;;;;2058014;28;20022;-70
2022/10/03 03:18:05;;;;;;;21.23;5.65;;;11.60;99.90;;;;;;2051708;28;20446;-70
2022/10/03 03:19:27;;;;;;;18.95;5.57;;;11.60;99.90;;;;;;2063577;28;20090;-70
2022/10/03 03:20:40;;;;;;;17.88;5.32;;;11.60;99.90;;;;;;2061524;28;20027;-70
2022/10/03 03:21:44;;;;;;;20.52;6.10;;;11.60;99.90;;;;;;2049691;29;20031;-69
2022/10/03 03:23:06;;;;;;;17.70;5.50;;;11.60;99.90;;;;;;2050250;28;20074;-69
2022/10/03 03:24:16;;;;;;;20.08;5.72;;;11.70;99.90;;;;;;2058293;28;20504;-71
2022/10/03 03:25:34;;;;;;;17.70;5.30;;;11.70;99.90;;;;;;2049833;29;20043;-70
2022/10/03 03:26:56;;;;;;;15.60;5.40;;;11.60;99.90;;;;;;2051784;28;20058;-69
2022/10/03 03:28:05;;;;;;;17.20;5.78;;;11.60;99.90;;;;;;2049586;29;20224;-70
2022/10/03 03:29:18;;;;;;;19.48;5.43;;;11.60;99.90;;;;;;2058930;28;20505;-70
2022/10/03 03:30:22;;;;;;;18.35;5.38;;;11.60;99.90;;;;;;2055946;28;20027;-70
2022/10/03 03:31:37;;;;;;;16.05;5.30;;;11.70;99.90;;;;;;2057490;28;20054;-70
2022/10/03 03:32:41;;;;;;;17.33;5.45;;;11.60;99.90;;;;;;2054855;28;20042;-72
2022/10/03 03:34:06;;;;;;;19.75;5.80;;;11.60;99.90;;;;;;2049234;28;20027;-70
2022/10/03 03:35:32;;;;;;;13.43;5.13;;;11.60;99.90;;;;;;2057173;28;20093;-71
2022/10/03 03:36:40;;;;;;;14.32;4.88;;;11.60;99.90;;;;;;2050028;28;20126;-70
2022/10/03 03:37:52;;;;;;;18.92;5.32;;;11.60;99.90;;;;;;2048221;29;20019;-70
2022/10/03 03:39:31;;;;;;;16.75;5.28;;;11.60;99.90;;;;;;2049979;28;20567;-70
2022/10/03 03:40:41;;;;;;;20.50;5.72;;;11.60;99.90;;;;;;2048331;29;20143;-70
2022/10/03 03:42:06;;;;;;;16.30;5.13;;;11.60;99.90;;;;;;2049337;28;20034;-70
2022/10/03 03:43:36;;;;;;;19.02;5.38;;;11.70;99.90;;;;;;2054880;28;20560;-70
2022/10/03 03:44:45;;;;;;;14.80;5.03;;;11.60;99.90;;;;;;2024010;29;20452;-70
2022/10/03 03:46:13;;;;;;;19.80;5.35;;;11.60;99.90;;;;;;2057150;28;20038;-70
2022/10/03 03:47:29;;;;;;;19.77;5.10;;;11.60;99.90;;;;;;2060485;28;20400;-70
2022/10/03 03:48:42;;;;;;;15.02;5.22;;;11.60;99.90;;;;;;2056961;28;20472;-70
2022/10/03 03:50:05;;;;;;;15.30;5.10;;;11.60;99.90;;;;;;2057092;28;20042;-70
2022/10/03 03:51:10;;;;;;;19.52;5.25;;;11.70;99.90;;;;;;2056851;28;20106;-70
2022/10/03 03:52:34;;;;;;;12.40;4.55;;;11.70;99.90;;;;;;2048430;29;20448;-70
2022/10/03 03:53:44;;;;;;;13.95;4.95;;;11.70;99.90;;;;;;2051344;28;20077;-72
2022/10/03 03:54:47;;;;;;;13.80;5.00;;;11.60;99.90;;;;;;2056997;28;20031;-70
2022/10/03 03:56:06;;;;;;;13.50;4.47;;;11.60;99.90;;;;;;2048317;29;20031;-70
2022/10/03 03:57:35;;;;;;;16.02;4.38;;;11.70;99.90;;;;;;2050955;28;20032;-70
2022/10/03 03:58:51;;;;;;;17.80;5.13;;;11.70;99.90;;;;;;2048883;29;20050;-70
2022/10/03 04:00:04;;;;;;;18.83;5.43;;;11.60;99.90;;;;;;2050324;28;20078;-70
2022/10/03 04:01:14;;;;;;;17.95;5.20;;;11.60;99.90;;;;;;2056639;28;20023;-70
2022/10/03 04:02:37;;;;;;;16.27;4.88;;;11.70;99.90;;;;;;2048054;29;20626;-70
2022/10/03 04:03:47;;;;;;;17.40;5.28;;;11.60;99.90;;;;;;2051257;28;20121;-69
2022/10/03 04:05:08;;;;;;;15.07;5.07;;;11.60;99.90;;;;;;2065573;28;20027;-70
2022/10/03 04:06:15;;;;;;;11.32;4.90;;;11.60;99.90;;;;;;2057844;28;20027;-69
2022/10/03 04:07:19;;;;;;;20.77;5.10;;;11.60;99.90;;;;;;2058169;28;20405;-70
2022/10/03 04:08:48;;;;;;;21.45;5.43;;;11.60;99.90;;;;;;2066048;28;20033;-69
2022/10/03 04:10:25;;;;;;;14.98;4.75;;;11.60;99.90;;;;;;2066199;28;20033;-70
2022/10/03 04:11:58;;;;;;;13.50;4.38;;;11.60;99.90;;;;;;2066083;28;20031;-69
2022/10/03 04:13:17;;;;;;;18.17;5.25;;;11.60;99.90;;;;;;2065876;28;20030;-68
2022/10/03 04:14:41;;;;;;;13.27;5.30;;;11.60;99.90;;;;;;2066624;28;20110;-69
2022/10/03 04:15:54;;;;;;;16.88;5.50;;;11.60;99.90;;;;;;2057768;28;20031;-71
2022/10/03 04:18:57;;;;;;;16.40;5.22;;;11.60;99.90;;;;;;2066336;28;20054;-70
2022/10/03 04:20:07;;;;;;;15.77;4.97;;;11.60;99.90;;;;;;2059816;28;20235;-69
2022/10/03 04:21:55;;;;;;;17.25;5.78;;;11.60;99.90;;;;;;2053538;29;20042;-68
2022/10/03 04:23:25;;;;;;;18.85;5.45;;;11.60;99.90;;;;;;2051048;28;20525;-69
2022/10/03 04:24:35;;;;;;;18.88;5.70;;;11.60;99.90;;;;;;2050431;29;20023;-69
2022/10/03 04:26:09;;;;;;;19.50;5.55;;;11.60;99.90;;;;;;2050241;29;20515;-71
2022/10/03 04:27:52;;;;;;;19.25;5.50;;;11.60;99.90;;;;;;2050124;29;20663;-70
2022/10/03 04:29:13;;;;;;;13.38;5.60;;;11.60;99.90;;;;;;2042442;28;20055;-69
2022/10/03 04:30:31;;;;;;;17.02;5.97;;;11.60;99.90;;;;;;2041695;29;20478;-69
2022/10/03 04:31:44;;;;;;;23.55;6.00;;;11.60;99.90;;;;;;2047630;28;20062;-69
2022/10/03 04:32:57;;;;;;;16.27;5.85;;;11.60;99.90;;;;;;2058309;28;20621;-70
2022/10/03 04:34:25;;;;;;;18.38;6.15;;;11.60;99.90;;;;;;2058017;28;20023;-70
2022/10/03 04:35:43;;;;;;;21.17;5.68;;;11.60;99.90;;;;;;2065634;28;20026;-70
2022/10/03 04:36:53;;;;;;;16.35;5.78;;;11.60;99.90;;;;;;2063140;28;20512;-70
2022/10/03 04:38:36;;;;;;;18.73;5.95;;;11.60;99.90;;;;;;2058229;28;20027;-69
2022/10/03 04:39:49;;;;;;;18.48;6.45;;;11.60;99.90;;;;;;2051643;28;20114;-69
2022/10/03 04:41:08;;;;;;;17.73;5.82;;;11.50;99.90;;;;;;2058239;28;20034;-70
2022/10/03 04:42:12;;;;;;;14.18;5.68;;;11.60;99.90;;;;;;2058288;28;20105;-70
2022/10/03 04:43:42;;;;;;;16.50;5.93;;;11.60;99.90;;;;;;2058062;28;20035;-70
2022/10/03 04:45:06;;;;;;;17.77;6.03;;;11.60;99.90;;;;;;2058279;28;20057;-69
2022/10/03 04:46:28;;;;;;;17.98;6.32;;;11.60;99.90;;;;;;2049664;29;20267;-70
2022/10/03 04:47:39;;;;;;;17.33;6.10;;;11.50;99.90;;;;;;2052153;28;20030;-69
2022/10/03 04:48:55;;;;;;;19.70;5.90;;;11.50;99.90;;;;;;2058235;28;20082;-69
2022/10/03 04:50:10;;;;;;;13.85;5.85;;;11.50;99.90;;;;;;2065353;28;20045;-70
2022/10/03 04:51:20;;;;;;;18.02;6.18;;;11.50;99.90;;;;;;2063964;28;20037;-70
2022/10/03 04:52:38;;;;;;;20.07;6.10;;;11.50;99.90;;;;;;2049378;29;20023;-70
2022/10/03 04:53:55;;;;;;;19.30;7.03;;;11.50;99.90;;;;;;2052011;28;20269;-69
2022/10/03 04:55:12;;;;;;;20.73;6.15;;;11.50;99.90;;;;;;2058204;28;20436;-70
2022/10/03 04:56:37;;;;;;;15.30;6.07;;;11.50;99.90;;;;;;2057791;28;20031;-70
2022/10/03 04:57:49;;;;;;;23.83;6.57;;;11.50;99.90;;;;;;2058209;28;20497;-70
2022/10/03 04:59:03;;;;;;;17.70;5.93;;;11.50;99.90;;;;;;2042015;29;20034;-71
2022/10/03 05:00:42;;;;;;;18.13;5.97;;;11.50;99.90;;;;;;2045512;28;20541;-68
2022/10/03 05:01:52;;;;;;;16.58;5.97;;;11.50;99.90;;;;;;2025653;29;20040;-69
2022/10/03 05:03:27;;;;;;;18.67;6.30;;;11.50;99.90;;;;;;2025864;29;20040;-70
2022/10/03 05:04:51;;;;;;;17.92;6.45;;;11.50;99.90;;;;;;2023156;29;20036;-69
2022/10/03 05:05:55;;;;;;;17.58;6.18;;;11.50;99.90;;;;;;2028176;29;20099;-72
2022/10/03 05:06:56;;;;;;;18.27;6.57;;;11.50;99.90;;;;;;2034030;28;20028;-69
2022/10/03 05:08:22;;;;;;;15.85;6.32;;;11.50;99.90;;;;;;2057365;28;20489;-70
2022/10/03 05:09:53;;;;;;;18.90;6.55;;;11.50;99.90;;;;;;2057411;28;20114;-70
2022/10/03 05:11:04;;;;;;;19.75;6.78;;;11.50;99.90;;;;;;2057171;28;20050;-69
2022/10/03 05:12:26;;;;;;;19.58;6.40;;;11.50;99.90;;;;;;2058656;28;20045;-70
2022/10/03 05:13:42;;;;;;;22.02;6.70;;;11.50;99.90;;;;;;2066047;28;20054;-70
2022/10/03 05:14:48;;;;;;;21.92;6.95;;;11.50;99.90;;;;;;2065783;28;20066;-70
2022/10/03 05:16:05;;;;;;;18.92;6.90;;;11.40;99.90;;;;;;2065223;28;20037;-71
2022/10/03 05:17:05;;;;;;;18.10;7.03;;;11.40;99.90;;;;;;2065495;28;20596;-70
2022/10/03 05:18:37;;;;;;;22.15;7.63;;;11.40;99.90;;;;;;2065987;28;20034;-69
2022/10/03 05:20:12;;;;;;;20.00;7.50;;;11.40;99.90;;;;;;2066187;28;20077;-70
2022/10/03 05:21:25;;;;;;;18.85;7.90;;;11.40;99.90;;;;;;2049905;29;20032;-69
2022/10/03 05:22:45;;;;;;;25.92;8.18;;;11.30;99.90;;;;;;2049656;29;20030;-69
2022/10/03 05:24:14;;;;;;;20.60;7.68;;;11.30;99.90;;;;;;2049893;29;20027;-69
2022/10/03 05:25:38;;;;;;;20.35;7.72;;;11.20;99.90;;;;;;2057172;28;20035;-68
2022/10/03 05:26:55;;;;;;;21.77;7.95;;;11.20;99.90;;;;;;2054846;28;20063;-71
2022/10/03 05:28:21;;;;;;;21.25;7.50;;;11.20;99.90;;;;;;2054639;28;20512;-71
2022/10/03 05:29:59;;;;;;;14.45;7.13;;;11.20;99.90;;;;;;2057742;28;20050;-69
2022/10/03 05:31:28;;;;;;;16.05;7.20;;;11.20;99.90;;;;;;2041105;29;20145;-69
2022/10/03 05:32:40;;;;;;;18.70;6.95;;;11.20;99.90;;;;;;2044484;28;20045;-69
2022/10/03 05:33:59;;;;;;;18.55;6.60;;;11.20;99.90;;;;;;2040974;29;20115;-69
2022/10/03 05:35:20;;;;;;;17.65;6.47;;;11.20;99.90;;;;;;2041860;29;20024;-69
2022/10/03 05:36:27;;;;;;;17.55;6.68;;;11.20;99.90;;;;;;2051954;28;20073;-70
2022/10/03 05:37:46;;;;;;;19.25;6.45;;;11.20;99.90;;;;;;2048929;29;20038;-70
2022/10/03 05:39:15;;;;;;;17.15;6.40;;;11.20;99.90;;;;;;2051831;28;20043;-69
2022/10/03 05:40:28;;;;;;;18.30;6.50;;;11.30;99.90;;;;;;2057872;28;20031;-69
2022/10/03 05:41:32;;;;;;;21.30;6.78;;;11.30;99.90;;;;;;2057516;28;20045;-69
2022/10/03 05:42:44;;;;;;;20.00;6.63;;;11.30;99.90;;;;;;2057531;28;20453;-70
2022/10/03 05:43:57;;;;;;;18.58;6.47;;;11.30;99.90;;;;;;2057639;28;20027;-71
2022/10/03 05:45:03;;;;;;;15.48;6.55;;;11.20;99.90;;;;;;2057374;28;20097;-69
2022/10/03 05:46:29;;;;;;;19.70;6.88;;;11.20;99.90;;;;;;2048888;29;20027;-70
2022/10/03 05:47:47;;;;;;;20.15;6.10;;;11.20;99.90;;;;;;2048757;29;20090;-69
2022/10/03 05:49:03;;;;;;;14.80;6.13;;;11.20;99.90;;;;;;2051293;28;20037;-69
2022/10/03 05:50:40;;;;;;;19.30;5.95;;;11.20;99.90;;;;;;2057331;28;20553;-69
2022/10/03 05:52:07;;;;;;;15.25;5.93;;;11.30;99.90;;;;;;2048660;29;20035;-69
2022/10/03 05:53:46;;;;;;;16.63;5.75;;;11.30;99.90;;;;;;2049718;28;20035;-69
2022/10/03 05:55:15;;;;;;;23.92;6.40;;;11.30;99.90;;;;;;2065039;28;20076;-69
2022/10/03 05:56:36;;;;;;;15.13;5.80;;;11.30;99.90;;;;;;2053215;28;20034;-69
2022/10/03 05:57:55;;;;;;;16.30;5.65;;;11.30;99.90;;;;;;2044006;29;20027;-69
2022/10/03 05:59:15;;;;;;;15.18;5.90;;;11.30;99.90;;;;;;2048861;29;20031;-71
2022/10/03 06:00:21;;;;;;;18.73;6.30;;;11.30;99.90;;;;;;2051742;28;20382;-69
2022/10/03 06:01:39;;;;;;;16.48;5.88;;;11.30;99.90;;;;;;2048769;29;20114;-69
2022/10/03 06:02:48;;;;;;;14.40;5.45;;;11.40;99.90;;;;;;2058486;28;20143;-69
2022/10/03 06:03:58;;;;;;;14.73;5.57;;;11.40;99.90;;;;;;2063228;28;20038;-69
2022/10/03 06:05:18;;;;;;;12.32;5.22;;;11.40;99.90;;;;;;2056541;28;20489;-69
2022/10/03 06:06:44;;;;;;;14.23;5.90;;;11.40;99.90;;;;;;2056248;28;20110;-69
2022/10/03 06:08:19;;;;;;;16.48;5.72;;;11.40;99.90;;;;;;2056693;28;20110;-69
2022/10/03 06:09:43;;;;;;;15.80;5.30;;;11.40;99.90;;;;;;2056267;28;20126;-69
2022/10/03 06:10:51;;;;;;;17.92;4.95;;;11.50;99.90;;;;;;2056597;28;20026;-70
2022/10/03 06:12:03;;;;;;;17.30;5.78;;;11.50;99.90;;;;;;2056827;28;20141;-68
2022/10/03 06:13:25;;;;;;;12.30;4.85;;;11.50;99.90;;;;;;2056171;28;20098;-68
2022/10/03 06:14:53;;;;;;;16.80;5.40;;;11.50;99.90;;;;;;2056285;28;20635;-71
2022/10/03 06:16:12;;;;;;;13.57;5.55;;;11.50;99.90;;;;;;2057268;28;20034;-70
2022/10/03 06:17:25;;;;;;;15.88;5.28;;;11.60;99.90;;;;;;2056808;28;20617;-71
2022/10/03 06:18:56;;;;;;;12.32;4.95;;;11.60;99.90;;;;;;2057854;28;20098;-71
2022/10/03 06:20:39;;;;;;;13.00;5.40;;;11.60;99.90;;;;;;2056930;28;20070;-71
2022/10/03 06:22:16;;;;;;;16.00;5.75;;;11.60;99.90;;;;;;2048176;28;20074;-72
2022/10/03 06:23:22;;;;;;;16.00;5.63;;;11.60;99.90;;;;;;2053258;28;20485;-72
2022/10/03 06:25:01;;;;;;;18.05;5.85;;;11.60;99.90;;;;;;2056490;28;20019;-71
2022/10/03 06:26:07;;;;;;;16.75;5.40;;;11.60;99.90;;;;;;2053383;28;20023;-71
2022/10/03 06:27:38;;;;;;;11.50;4.90;;;11.60;99.90;;;;;;2055476;28;20532;-70
2022/10/03 06:29:16;;;;;;;11.68;4.70;;;11.70;99.90;;;;;;2057391;28;20466;-70
2022/10/03 06:30:38;;;;;;;13.52;5.18;;;11.70;99.90;;;;;;2040288;29;20168;-71
2022/10/03 06:32:00;;;;;;;12.95;5.25;;;11.80;99.90;;;;;;2041971;28;20023;-71
2022/10/03 06:33:39;;;;;;;15.88;5.78;;;11.80;99.90;;;;;;2056552;28;20030;-71
2022/10/03 06:35:20;;;;;;;16.10;5.25;;;11.80;99.90;;;;;;2055845;28;20019;-72
2022/10/03 06:36:43;;;;;;;12.20;5.25;;;11.80;99.90;;;;;;2047453;29;20047;-72
2022/10/03 06:38:08;;;;;;;13.50;5.10;;;11.80;99.90;;;;;;2050865;28;20041;-74
2022/10/03 06:39:52;;;;;;;15.70;5.47;;;11.90;99.90;;;;;;2048049;29;20066;-71
2022/10/03 06:41:13;;;;;;;13.77;5.60;;;11.90;99.90;;;;;;2054016;28;20231;-70
2022/10/03 06:42:20;;;;;;;12.38;5.38;;;11.80;99.90;;;;;;2056025;28;20035;-70
2022/10/03 06:43:39;;;;;;;13.45;5.28;;;11.90;99.90;;;;;;2040059;29;20032;-69
2022/10/03 06:45:10;;;;;;;16.65;5.78;;;11.90;99.90;;;;;;2042444;29;20040;-69
2022/10/03 06:46:45;;;;;;;14.60;5.80;;;12.00;99.90;;;;;;2044083;29;20091;-69
2022/10/03 06:48:04;;;;;;;17.15;6.15;;;12.00;99.90;;;;;;2035937;29;20652;-70
2022/10/03 06:49:28;;;;;;;15.35;5.80;;;12.00;99.90;;;;;;2050426;28;20038;-70
2022/10/03 06:50:38;;;;;;;15.98;5.47;;;12.00;99.90;;;;;;2047885;29;20122;-70
2022/10/03 06:52:09;;;;;;;16.85;6.18;;;11.90;99.90;;;;;;2048790;28;20548;-70
2022/10/03 06:53:42;;;;;;;15.35;5.80;;;11.90;99.90;;;;;;2056420;28;20088;-70
2022/10/03 06:55:24;;;;;;;15.32;5.88;;;11.90;99.90;;;;;;2056468;28;20055;-71
2022/10/03 06:56:55;;;;;;;17.50;6.22;;;11.90;99.90;;;;;;2057033;28;20022;-68
2022/10/03 06:58:02;;;;;;;15.90;5.97;;;12.00;99.90;;;;;;2056774;28;20082;-69
2022/10/03 06:59:29;;;;;;;15.85;6.32;;;12.00;99.90;;;;;;2044944;29;20456;-71